Time;durP1;ratioP1;P1;durP2;ratioP2;P2;SDS_P1;SDS_P2;PMS_P1;PMS_P2;Temp;Humidity;BMP_temperature;BMP_pressure;BME280_temperature;BME280_humidity;BME280_pressure;Samples;Min_cycle;Max_cycle;Signal;HPM_P1;HPM_P2
2023/04/07 00:00:56;;;;;;;21.88;16.23;;;7.90;99.90;;;;;;4978862;28;20045;-64
2023/04/07 00:03:22;;;;;;;23.67;17.08;;;7.90;99.90;;;;;;4978981;28;20037;-64
2023/04/07 00:05:48;;;;;;;24.67;17.75;;;7.90;99.90;;;;;;4971526;28;20046;-63
2023/04/07 00:08:13;;;;;;;22.45;17.17;;;7.90;99.90;;;;;;4976998;28;20478;-64
2023/04/07 00:10:39;;;;;;;23.40;17.23;;;7.90;99.90;;;;;;4953767;28;20046;-64
2023/04/07 00:13:05;;;;;;;23.33;17.02;;;7.90;99.90;;;;;;4984123;28;20456;-64
2023/04/07 00:15:31;;;;;;;23.73;17.85;;;7.90;99.90;;;;;;4978965;28;20130;-64
2023/04/07 00:17:56;;;;;;;24.95;18.05;;;7.90;99.90;;;;;;4978165;28;20113;-64
2023/04/07 00:20:22;;;;;;;24.10;17.17;;;7.90;99.90;;;;;;4958697;28;20073;-64
2023/04/07 00:22:48;;;;;;;24.60;18.45;;;7.90;99.90;;;;;;4978911;28;20492;-64
2023/04/07 00:25:13;;;;;;;22.45;16.73;;;7.90;99.90;;;;;;4981087;28;20532;-64
2023/04/07 00:27:39;;;;;;;26.30;18.80;;;7.90;99.90;;;;;;4986273;28;20527;-64
2023/04/07 00:30:05;;;;;;;22.98;17.75;;;7.80;99.90;;;;;;4979441;28;20418;-64
2023/04/07 00:32:31;;;;;;;27.45;18.77;;;7.90;99.90;;;;;;4979559;28;20446;-64
2023/04/07 00:34:57;;;;;;;26.80;18.77;;;7.80;99.90;;;;;;4961668;28;20131;-64
2023/04/07 00:37:24;;;;;;;28.55;19.27;;;7.90;99.90;;;;;;4985807;28;20405;-64
2023/04/07 00:39:50;;;;;;;28.77;19.10;;;7.90;99.90;;;;;;4981906;28;20054;-64
2023/04/07 00:42:16;;;;;;;26.63;19.17;;;7.90;99.90;;;;;;4983019;28;20038;-64
2023/04/07 00:44:42;;;;;;;25.80;17.95;;;7.90;99.90;;;;;;4970055;28;20116;-64
2023/04/07 00:47:07;;;;;;;24.42;18.13;;;7.90;99.90;;;;;;4972878;28;20043;-63
2023/04/07 00:49:33;;;;;;;25.98;18.77;;;7.90;99.90;;;;;;4981034;28;20027;-64
2023/04/07 00:51:59;;;;;;;28.63;19.63;;;7.90;99.90;;;;;;4953501;28;20199;-64
2023/04/07 00:54:24;;;;;;;28.70;19.27;;;7.90;99.90;;;;;;4976072;28;20046;-64
2023/04/07 00:56:51;;;;;;;26.73;19.48;;;7.90;99.90;;;;;;4979610;28;20035;-64
2023/04/07 00:59:17;;;;;;;26.00;18.52;;;7.90;99.90;;;;;;4981796;28;20437;-63
2023/04/07 01:02:06;;;;;;;26.85;19.25;;;7.90;99.90;;;;;;4962586;28;20177;-63
2023/04/07 01:04:42;;;;;;;27.65;19.88;;;7.90;99.90;;;;;;4982352;28;20110;-63
2023/04/07 01:07:17;;;;;;;28.85;19.27;;;7.90;99.90;;;;;;4971671;28;20130;-63
2023/04/07 01:09:50;;;;;;;29.50;19.90;;;8.00;99.90;;;;;;4990822;28;20038;-63
2023/04/07 01:12:31;;;;;;;26.65;19.23;;;7.90;99.90;;;;;;4970363;28;20431;-63
2023/04/07 01:14:59;;;;;;;27.45;19.35;;;7.90;99.90;;;;;;4992725;28;20401;-63
2023/04/07 01:17:27;;;;;;;27.13;19.27;;;7.90;99.90;;;;;;4985491;28;20149;-64
2023/04/07 01:19:57;;;;;;;26.67;20.23;;;7.90;99.90;;;;;;4984546;28;20046;-63
2023/04/07 01:22:30;;;;;;;29.10;20.38;;;7.90;99.90;;;;;;4982381;28;20106;-63
2023/04/07 01:25:14;;;;;;;27.73;20.17;;;7.90;99.90;;;;;;4981238;28;20442;-63
2023/04/07 01:28:11;;;;;;;30.25;20.08;;;7.90;99.90;;;;;;4976583;28;20134;-64
2023/04/07 01:30:40;;;;;;;28.98;19.73;;;7.90;99.90;;;;;;4983883;28;20397;-63
2023/04/07 01:33:10;;;;;;;28.95;20.38;;;7.90;99.90;;;;;;4986155;28;20066;-63
2023/04/07 01:35:37;;;;;;;30.02;21.48;;;7.90;99.90;;;;;;4963479;28;20069;-63
2023/04/07 01:38:04;;;;;;;27.50;19.75;;;7.90;99.90;;;;;;4962284;28;20042;-63
2023/04/07 01:40:33;;;;;;;26.40;19.75;;;8.00;99.90;;;;;;4968077;28;20082;-64
2023/04/07 01:42:59;;;;;;;29.58;21.45;;;7.90;99.90;;;;;;4983024;28;20077;-64
2023/04/07 01:45:26;;;;;;;28.83;21.52;;;7.90;99.90;;;;;;4987640;28;20034;-64
2023/04/07 01:47:53;;;;;;;28.00;19.60;;;8.00;99.90;;;;;;4983374;28;20078;-64
2023/04/07 01:50:20;;;;;;;28.60;20.50;;;8.00;99.90;;;;;;4974607;28;20493;-64
2023/04/07 01:52:46;;;;;;;28.05;20.05;;;8.00;99.90;;;;;;4982952;28;20034;-64
2023/04/07 01:55:12;;;;;;;29.08;20.48;;;8.00;99.90;;;;;;4979772;28;20042;-64
2023/04/07 01:57:37;;;;;;;29.90;21.55;;;8.00;99.90;;;;;;4964983;28;20042;-64
2023/04/07 02:00:04;;;;;;;28.20;20.15;;;8.00;99.90;;;;;;4984592;28;20038;-64
2023/04/07 02:02:32;;;;;;;26.77;19.20;;;8.00;99.90;;;;;;4984504;28;20046;-64
2023/04/07 02:05:04;;;;;;;28.05;20.60;;;7.90;99.90;;;;;;4977683;28;20481;-64
2023/04/07 02:07:44;;;;;;;29.23;20.10;;;7.90;99.90;;;;;;4981272;28;20051;-64
2023/04/07 02:10:14;;;;;;;25.67;18.92;;;7.90;99.90;;;;;;4966306;28;20080;-64
2023/04/07 02:12:41;;;;;;;27.15;19.75;;;8.00;99.90;;;;;;4985288;28;20480;-64
2023/04/07 02:15:10;;;;;;;28.88;20.23;;;8.00;99.90;;;;;;4975083;28;20529;-64
2023/04/07 02:17:38;;;;;;;28.02;20.38;;;8.00;99.90;;;;;;4982685;28;20046;-64
2023/04/07 02:20:07;;;;;;;30.52;20.65;;;8.00;99.90;;;;;;4978737;28;20049;-64
2023/04/07 02:22:32;;;;;;;30.85;21.20;;;8.00;99.90;;;;;;4955280;28;20133;-64
2023/04/07 02:24:58;;;;;;;26.85;20.60;;;8.00;99.90;;;;;;4971920;28;20085;-64
2023/04/07 02:27:23;;;;;;;27.58;19.73;;;8.00;99.90;;;;;;4989322;28;20544;-64
2023/04/07 02:29:49;;;;;;;28.30;20.65;;;8.00;99.90;;;;;;4965895;28;20464;-64
2023/04/07 02:32:16;;;;;;;26.48;19.83;;;8.00;99.90;;;;;;4963577;28;20050;-64
2023/04/07 02:34:42;;;;;;;28.45;20.02;;;8.00;99.90;;;;;;4967111;28;20069;-64
2023/04/07 02:37:07;;;;;;;27.73;19.75;;;8.00;99.90;;;;;;4987384;28;20038;-64
2023/04/07 02:39:33;;;;;;;27.58;20.33;;;8.00;99.90;;;;;;4981344;28;20038;-64
2023/04/07 02:41:59;;;;;;;26.40;19.13;;;8.00;99.90;;;;;;4974272;28;20511;-64
2023/04/07 02:44:24;;;;;;;28.48;20.58;;;8.00;99.90;;;;;;4972815;28;20041;-64
2023/04/07 02:46:50;;;;;;;27.48;19.08;;;8.00;99.90;;;;;;4972872;28;20411;-64
2023/04/07 02:49:15;;;;;;;27.13;19.55;;;8.00;99.90;;;;;;4956689;28;20121;-64
2023/04/07 02:51:41;;;;;;;28.52;20.27;;;8.00;99.90;;;;;;4956351;28;20043;-64
2023/04/07 02:54:06;;;;;;;28.65;20.55;;;8.00;99.90;;;;;;4982863;28;20034;-64
2023/04/07 02:56:32;;;;;;;28.52;20.17;;;8.00;99.90;;;;;;4983647;28;20030;-64
2023/04/07 02:58:58;;;;;;;29.48;20.60;;;8.00;99.90;;;;;;4957737;28;20035;-64
2023/04/07 03:01:23;;;;;;;31.58;21.17;;;8.10;99.90;;;;;;4964867;28;20391;-63
2023/04/07 03:03:49;;;;;;;28.85;20.45;;;8.10;99.90;;;;;;4974599;28;20039;-63
2023/04/07 03:06:14;;;;;;;29.63;20.88;;;8.10;99.90;;;;;;4981719;28;20030;-65
2023/04/07 03:08:41;;;;;;;27.58;20.75;;;8.10;99.90;;;;;;4980979;28;20038;-63
2023/04/07 03:11:06;;;;;;;32.00;21.55;;;8.10;99.90;;;;;;4979407;28;20070;-64
2023/04/07 03:13:32;;;;;;;33.17;21.73;;;8.10;99.90;;;;;;4978213;28;20480;-63
2023/04/07 03:15:58;;;;;;;32.00;22.95;;;8.10;99.90;;;;;;5004767;23;20046;-63
2023/04/07 03:18:23;;;;;;;31.92;21.13;;;8.10;99.90;;;;;;4985008;28;20039;-64
2023/04/07 03:20:51;;;;;;;32.45;21.05;;;8.10;99.90;;;;;;4973110;28;20117;-63
2023/04/07 03:23:17;;;;;;;29.05;20.58;;;8.10;99.90;;;;;;4983412;28;20041;-65
2023/04/07 03:25:43;;;;;;;29.58;20.52;;;8.10;99.90;;;;;;4987012;28;20038;-63
2023/04/07 03:28:08;;;;;;;30.65;21.23;;;8.10;99.90;;;;;;4980190;28;20034;-64
2023/04/07 03:30:34;;;;;;;31.70;21.67;;;8.10;99.90;;;;;;4973220;28;20038;-64
2023/04/07 03:32:59;;;;;;;28.90;21.30;;;8.10;99.90;;;;;;4976039;28;20034;-64
2023/04/07 03:35:26;;;;;;;29.75;20.92;;;8.10;99.90;;;;;;4985703;28;20026;-64
2023/04/07 03:37:51;;;;;;;28.60;20.33;;;8.10;99.90;;;;;;4971256;28;20100;-65
2023/04/07 03:40:17;;;;;;;30.73;21.77;;;8.10;99.90;;;;;;4991650;28;20078;-64
2023/04/07 03:42:45;;;;;;;30.67;20.77;;;8.10;99.90;;;;;;4966606;28;20072;-64
2023/04/07 03:45:10;;;;;;;27.58;20.33;;;8.10;99.90;;;;;;4966599;28;20038;-64
2023/04/07 03:47:36;;;;;;;28.35;20.48;;;8.10;99.90;;;;;;4971830;28;20069;-64
2023/04/07 03:50:02;;;;;;;29.05;19.40;;;8.10;99.90;;;;;;4980087;28;20041;-64
2023/04/07 03:52:27;;;;;;;28.80;20.00;;;8.00;99.90;;;;;;4987222;28;20034;-64
2023/04/07 03:54:53;;;;;;;28.77;20.70;;;8.10;99.90;;;;;;4980280;28;20046;-64
2023/04/07 03:57:18;;;;;;;27.90;20.30;;;8.10;99.90;;;;;;4983594;28;20038;-63
2023/04/07 03:59:45;;;;;;;29.52;21.13;;;8.10;99.90;;;;;;4966191;28;20065;-64
2023/04/07 04:02:11;;;;;;;28.52;19.63;;;8.10;99.90;;;;;;4942684;28;20046;-64
2023/04/07 04:04:37;;;;;;;28.48;19.75;;;8.10;99.90;;;;;;4985959;28;20133;-63
2023/04/07 04:07:02;;;;;;;27.55;19.70;;;8.10;99.90;;;;;;4978425;28;20046;-64
2023/04/07 04:09:28;;;;;;;26.85;19.08;;;8.10;99.90;;;;;;4980674;28;20035;-64
2023/04/07 04:11:55;;;;;;;25.70;19.13;;;8.10;99.90;;;;;;4989958;28;20045;-63
2023/04/07 04:14:20;;;;;;;25.17;18.52;;;8.10;99.90;;;;;;4972933;28;20042;-65
2023/04/07 04:16:46;;;;;;;26.60;18.90;;;8.00;99.90;;;;;;4981120;28;20044;-63
2023/04/07 04:19:11;;;;;;;25.88;18.65;;;8.00;99.90;;;;;;4966540;28;20386;-64
2023/04/07 04:21:37;;;;;;;28.30;20.10;;;8.10;99.90;;;;;;4976378;28;20102;-64
2023/04/07 04:24:03;;;;;;;27.80;18.95;;;8.10;99.90;;;;;;4981115;28;20039;-64
2023/04/07 04:26:29;;;;;;;25.15;18.25;;;8.10;99.90;;;;;;4982156;28;20625;-63
2023/04/07 04:28:54;;;;;;;24.95;17.67;;;8.10;99.90;;;;;;4981155;28;20038;-64
2023/04/07 04:31:20;;;;;;;24.58;18.15;;;8.10;99.90;;;;;;4977973;28;20041;-64
2023/04/07 04:33:46;;;;;;;25.02;17.83;;;8.10;99.90;;;;;;4983370;28;20509;-64
2023/04/07 04:36:12;;;;;;;26.83;18.60;;;8.10;99.90;;;;;;4985282;28;20118;-64
2023/04/07 04:38:37;;;;;;;25.67;18.70;;;8.10;99.90;;;;;;4957100;28;20046;-63
2023/04/07 04:41:03;;;;;;;26.30;19.40;;;8.10;99.90;;;;;;4984624;28;20041;-64
2023/04/07 04:43:28;;;;;;;28.08;19.25;;;8.10;99.90;;;;;;4977980;28;20038;-63
2023/04/07 04:45:55;;;;;;;26.77;19.67;;;8.10;99.90;;;;;;4976289;28;20043;-63
2023/04/07 04:48:20;;;;;;;28.33;19.95;;;8.00;99.90;;;;;;4966534;28;20066;-64
2023/04/07 04:50:46;;;;;;;27.55;18.98;;;8.10;99.90;;;;;;4986532;28;20475;-64
2023/04/07 04:53:11;;;;;;;26.50;18.52;;;8.10;99.90;;;;;;4977679;28;20062;-63
2023/04/07 04:55:39;;;;;;;25.17;17.98;;;8.10;99.90;;;;;;4979540;28;20405;-64
2023/04/07 04:58:05;;;;;;;25.15;18.02;;;8.00;99.90;;;;;;4986504;28;20045;-64
2023/04/07 05:00:30;;;;;;;24.83;17.17;;;8.00;99.90;;;;;;4976267;28;20358;-64
2023/04/07 05:02:56;;;;;;;22.85;17.27;;;8.00;99.90;;;;;;4985303;28;20030;-63
2023/04/07 05:05:21;;;;;;;22.83;16.50;;;8.00;99.90;;;;;;4972114;28;20057;-64
2023/04/07 05:07:47;;;;;;;23.13;16.90;;;8.00;99.90;;;;;;4958739;28;20043;-64
2023/04/07 05:10:13;;;;;;;24.25;17.38;;;8.00;99.90;;;;;;4972329;28;20046;-64
2023/04/07 05:12:39;;;;;;;22.85;16.90;;;8.00;99.90;;;;;;4977302;28;20519;-64
2023/04/07 05:15:05;;;;;;;23.27;16.88;;;8.00;99.90;;;;;;4956961;28;20047;-65
2023/04/07 05:17:31;;;;;;;24.55;17.15;;;8.00;99.90;;;;;;4986605;28;20551;-64
2023/04/07 05:19:56;;;;;;;23.60;17.67;;;8.00;99.90;;;;;;4962658;28;20126;-65
2023/04/07 05:22:22;;;;;;;21.80;15.93;;;8.00;99.90;;;;;;4983980;28;20625;-63
2023/04/07 05:24:47;;;;;;;23.33;17.05;;;8.10;99.90;;;;;;4978375;28;21416;-63
2023/04/07 05:27:13;;;;;;;20.88;16.05;;;8.10;99.90;;;;;;4989725;28;20100;-64
2023/04/07 05:29:38;;;;;;;21.52;16.25;;;8.10;99.90;;;;;;4954745;28;20035;-63
2023/04/07 05:32:05;;;;;;;21.65;16.00;;;8.10;99.90;;;;;;4967341;28;20117;-64
2023/04/07 05:34:30;;;;;;;21.67;15.80;;;8.00;99.90;;;;;;4972405;28;20046;-64
2023/04/07 05:36:56;;;;;;;20.75;15.52;;;8.10;99.90;;;;;;4987263;28;20038;-64
2023/04/07 05:39:22;;;;;;;21.50;15.77;;;8.10;99.90;;;;;;4998400;28;21085;-64
2023/04/07 05:41:47;;;;;;;20.02;15.68;;;8.10;99.90;;;;;;4964856;28;20133;-64
2023/04/07 05:44:13;;;;;;;20.23;15.18;;;8.10;99.90;;;;;;4957978;28;20043;-64
2023/04/07 05:46:38;;;;;;;18.73;14.50;;;8.10;99.90;;;;;;4955054;28;20043;-64
2023/04/07 05:49:04;;;;;;;18.00;13.82;;;8.10;99.90;;;;;;4989119;28;20034;-64
2023/04/07 05:51:30;;;;;;;18.35;14.38;;;8.10;99.90;;;;;;4989106;28;20038;-65
2023/04/07 05:53:56;;;;;;;18.48;14.10;;;8.10;99.90;;;;;;4980877;28;20046;-64
2023/04/07 05:56:21;;;;;;;18.67;14.10;;;8.10;99.90;;;;;;4967501;28;20117;-64
2023/04/07 05:58:47;;;;;;;17.90;13.38;;;8.10;99.90;;;;;;4979769;28;20347;-64
2023/04/07 06:01:12;;;;;;;17.58;13.50;;;8.10;99.90;;;;;;4986536;28;20100;-64
2023/04/07 06:03:39;;;;;;;21.17;13.70;;;8.10;99.90;;;;;;4982619;28;20451;-65
2023/04/07 06:06:05;;;;;;;19.00;14.68;;;8.10;99.90;;;;;;4965132;28;20046;-64
2023/04/07 06:08:31;;;;;;;17.98;13.65;;;8.10;99.90;;;;;;4979144;28;20042;-63
2023/04/07 06:10:56;;;;;;;18.60;14.02;;;8.10;99.90;;;;;;4984248;28;20037;-65
2023/04/07 06:13:22;;;;;;;20.05;14.73;;;8.10;99.90;;;;;;4970412;28;20086;-65
2023/04/07 06:15:47;;;;;;;19.67;14.82;;;8.10;99.90;;;;;;4974990;28;20050;-64
2023/04/07 06:18:13;;;;;;;20.35;14.95;;;8.10;99.90;;;;;;4984388;28;20030;-64
2023/04/07 06:20:39;;;;;;;17.85;13.85;;;8.10;99.90;;;;;;4988796;28;20105;-64
2023/04/07 06:23:05;;;;;;;18.60;13.57;;;8.10;99.90;;;;;;4943737;28;20043;-66
2023/04/07 06:25:31;;;;;;;16.40;12.65;;;8.10;99.90;;;;;;4986977;28;20050;-65
2023/04/07 06:27:56;;;;;;;16.88;12.60;;;8.10;99.90;;;;;;4992550;28;20113;-65
2023/04/07 06:30:22;;;;;;;15.93;12.35;;;8.10;99.90;;;;;;4995347;28;20232;-63
2023/04/07 06:32:47;;;;;;;16.23;12.75;;;8.10;99.90;;;;;;4985885;28;20378;-64
2023/04/07 06:35:13;;;;;;;15.80;12.07;;;8.10;99.90;;;;;;4973368;28;20045;-64
2023/04/07 06:37:39;;;;;;;15.88;12.73;;;8.20;99.90;;;;;;4962873;28;20050;-65
2023/04/07 06:40:06;;;;;;;19.80;12.75;;;8.10;99.90;;;;;;4974355;28;20564;-64
2023/04/07 06:42:32;;;;;;;16.10;12.70;;;8.10;99.90;;;;;;4965661;28;20054;-64
2023/04/07 06:44:57;;;;;;;17.85;13.65;;;8.10;99.90;;;;;;4982178;28;20030;-64
2023/04/07 06:47:23;;;;;;;17.10;13.00;;;8.20;99.90;;;;;;4981973;28;20042;-65
2023/04/07 06:49:49;;;;;;;16.55;12.48;;;8.10;99.90;;;;;;4979693;28;20571;-64
2023/04/07 06:52:14;;;;;;;15.55;12.43;;;8.70;99.90;;;;;;4974126;28;20524;-63
2023/04/07 06:54:40;;;;;;;16.90;12.43;;;8.20;99.90;;;;;;4980330;28;20041;-65
2023/04/07 06:57:10;;;;;;;15.88;12.25;;;8.20;99.90;;;;;;4964402;28;20481;-64
2023/04/07 06:59:36;;;;;;;17.92;11.88;;;8.20;99.90;;;;;;4980014;28;20108;-64
2023/04/07 07:02:02;;;;;;;16.05;12.73;;;8.20;99.90;;;;;;4969535;28;20042;-64
2023/04/07 07:04:28;;;;;;;15.93;11.68;;;8.20;99.90;;;;;;4987673;28;20042;-65
2023/04/07 07:06:54;;;;;;;19.08;13.15;;;8.20;99.90;;;;;;4957911;28;20459;-64
2023/04/07 07:09:20;;;;;;;15.52;12.20;;;8.20;99.90;;;;;;4983886;28;20077;-64
2023/04/07 07:11:46;;;;;;;16.70;12.75;;;8.30;99.90;;;;;;4945233;28;20074;-65
2023/04/07 07:14:12;;;;;;;18.55;13.73;;;8.20;99.90;;;;;;4976513;28;20113;-65
2023/04/07 07:16:37;;;;;;;17.83;12.80;;;8.30;99.90;;;;;;4981434;28;20046;-63
2023/04/07 07:19:03;;;;;;;17.80;12.63;;;8.30;99.90;;;;;;4987868;28;20154;-64
2023/04/07 07:21:28;;;;;;;15.98;12.27;;;8.30;99.90;;;;;;4962500;28;20046;-63
2023/04/07 07:23:54;;;;;;;19.30;12.45;;;8.30;99.90;;;;;;4970274;28;20125;-66
2023/04/07 07:26:20;;;;;;;16.88;12.07;;;8.30;99.90;;;;;;4962217;28;20038;-63
2023/04/07 07:28:46;;;;;;;16.17;12.23;;;8.30;99.90;;;;;;4981576;28;20038;-64
2023/04/07 07:31:12;;;;;;;17.52;12.75;;;8.40;99.90;;;;;;4986340;28;20031;-64
2023/04/07 07:33:40;;;;;;;16.90;12.43;;;8.40;99.90;;;;;;4987944;28;20485;-64
2023/04/07 07:36:06;;;;;;;18.02;12.05;;;8.40;99.90;;;;;;4966035;28;20529;-64
2023/04/07 07:38:32;;;;;;;17.27;12.23;;;8.40;99.90;;;;;;4969103;28;20097;-64
2023/04/07 07:40:58;;;;;;;15.95;11.77;;;8.40;99.90;;;;;;4987969;28;20093;-63
2023/04/07 07:43:23;;;;;;;15.73;11.88;;;8.40;99.90;;;;;;4978569;28;20041;-64
2023/04/07 07:45:49;;;;;;;16.55;11.68;;;8.50;99.90;;;;;;4961819;28;20047;-64
2023/04/07 07:48:15;;;;;;;14.52;11.10;;;8.50;99.90;;;;;;4984926;28;20038;-64
2023/04/07 07:50:41;;;;;;;14.85;11.13;;;8.50;99.90;;;;;;4972441;28;20398;-64
2023/04/07 07:53:07;;;;;;;13.13;10.45;;;8.50;99.90;;;;;;4974867;28;20045;-64
2023/04/07 07:55:32;;;;;;;14.43;10.82;;;8.60;99.90;;;;;;4971709;28;20046;-64
2023/04/07 07:57:58;;;;;;;13.02;10.40;;;8.60;99.90;;;;;;4976996;28;20061;-64
2023/04/07 08:00:23;;;;;;;13.13;9.82;;;8.60;99.90;;;;;;4991304;28;20073;-66
2023/04/07 08:02:49;;;;;;;13.20;9.98;;;8.60;99.90;;;;;;4966121;28;20042;-64
2023/04/07 08:05:14;;;;;;;12.68;10.05;;;8.70;99.90;;;;;;4976518;28;20034;-64
2023/04/07 08:07:41;;;;;;;13.15;9.32;;;8.70;99.90;;;;;;4956272;28;20122;-65
2023/04/07 08:10:07;;;;;;;12.50;9.70;;;8.70;99.90;;;;;;4981652;28;20039;-64
2023/04/07 08:12:33;;;;;;;12.32;9.65;;;8.80;99.90;;;;;;4962404;28;20046;-63
2023/04/07 08:14:59;;;;;;;11.60;9.02;;;8.80;99.90;;;;;;4960511;28;20061;-64
2023/04/07 08:17:24;;;;;;;11.32;8.82;;;8.80;99.90;;;;;;4981929;28;20034;-64
2023/04/07 08:19:50;;;;;;;11.95;9.10;;;8.80;99.90;;;;;;4980148;28;20116;-64
2023/04/07 08:22:18;;;;;;;11.32;8.95;;;8.90;99.90;;;;;;4966177;28;20094;-65
2023/04/07 08:24:44;;;;;;;12.00;9.52;;;8.90;99.90;;;;;;4966004;28;20050;-64
2023/04/07 08:27:09;;;;;;;13.27;9.38;;;9.00;99.90;;;;;;4982132;28;20465;-64
2023/04/07 08:29:35;;;;;;;12.85;10.20;;;9.00;99.90;;;;;;4981500;28;20030;-64
2023/04/07 08:32:00;;;;;;;13.70;10.40;;;9.00;99.90;;;;;;4980422;28;20141;-64
2023/04/07 08:34:26;;;;;;;15.30;11.52;;;9.00;99.90;;;;;;4964454;28;20136;-65
2023/04/07 08:36:52;;;;;;;17.77;12.55;;;9.00;99.90;;;;;;4964757;28;20062;-63
2023/04/07 08:39:18;;;;;;;16.42;11.75;;;8.90;99.90;;;;;;4980076;28;20053;-64
2023/04/07 08:41:45;;;;;;;17.55;13.20;;;8.90;99.90;;;;;;4964934;28;20046;-63
2023/04/07 08:44:12;;;;;;;19.35;13.98;;;9.00;99.90;;;;;;4975196;28;20125;-64
2023/04/07 08:46:39;;;;;;;19.70;14.25;;;9.00;99.90;;;;;;4990454;28;20061;-63
2023/04/07 08:49:09;;;;;;;19.02;14.00;;;9.00;99.90;;;;;;4983660;28;20138;-63
2023/04/07 08:51:36;;;;;;;18.90;13.00;;;9.10;99.90;;;;;;4982266;28;20251;-63
2023/04/07 08:54:21;;;;;;;21.80;13.70;;;9.10;99.90;;;;;;4960400;28;20077;-63
2023/04/07 08:56:46;;;;;;;18.55;13.48;;;9.20;99.90;;;;;;4968662;28;20580;-63
2023/04/07 08:59:15;;;;;;;20.08;13.73;;;9.20;99.90;;;;;;4967659;28;20138;-63
2023/04/07 09:01:41;;;;;;;19.73;13.18;;;9.30;99.90;;;;;;4988036;28;20104;-63
2023/04/07 09:04:07;;;;;;;18.58;14.18;;;9.30;99.90;;;;;;4977964;28;20043;-64
2023/04/07 09:06:34;;;;;;;17.77;13.57;;;9.40;99.90;;;;;;4965586;28;20057;-63
2023/04/07 09:09:00;;;;;;;19.73;13.50;;;9.40;99.90;;;;;;4983727;28;20077;-64
2023/04/07 09:11:27;;;;;;;19.30;13.70;;;9.40;99.90;;;;;;4979363;28;20396;-64
2023/04/07 09:13:54;;;;;;;18.92;13.38;;;9.50;99.90;;;;;;4979245;28;20097;-63
2023/04/07 09:16:20;;;;;;;17.05;12.90;;;9.50;99.90;;;;;;4995487;23;20177;-63
2023/04/07 09:18:46;;;;;;;17.33;13.70;;;9.50;99.90;;;;;;4997295;28;20073;-64
2023/04/07 09:21:11;;;;;;;19.02;13.55;;;9.60;99.90;;;;;;4987929;28;20062;-64
2023/04/07 09:23:39;;;;;;;19.42;13.05;;;9.60;99.90;;;;;;4984049;28;20064;-64
2023/04/07 09:26:17;;;;;;;17.75;12.90;;;9.60;99.90;;;;;;4977988;28;20043;-64
2023/04/07 09:28:45;;;;;;;16.83;12.07;;;9.60;99.90;;;;;;4990821;28;20182;-64
2023/04/07 09:31:11;;;;;;;15.07;11.15;;;9.70;99.90;;;;;;4972639;28;20038;-64
2023/04/07 09:33:36;;;;;;;16.90;11.70;;;9.70;99.90;;;;;;4983085;28;20093;-64
2023/04/07 09:36:05;;;;;;;16.55;11.30;;;9.80;99.90;;;;;;4988057;28;20389;-64
2023/04/07 09:38:38;;;;;;;15.15;12.02;;;9.80;99.90;;;;;;4979231;28;20043;-64
2023/04/07 09:41:14;;;;;;;14.23;10.48;;;9.90;99.90;;;;;;4966499;28;20034;-64
2023/04/07 09:43:43;;;;;;;14.90;10.43;;;9.90;99.90;;;;;;4978130;28;20121;-64
2023/04/07 09:46:17;;;;;;;13.85;9.88;;;10.00;99.90;;;;;;4986875;28;20038;-64
2023/04/07 09:48:44;;;;;;;13.68;9.80;;;10.10;99.90;;;;;;4990684;28;20050;-64
2023/04/07 09:51:12;;;;;;;15.02;10.35;;;10.10;99.90;;;;;;4963228;28;20408;-64
2023/04/07 09:53:41;;;;;;;13.57;10.18;;;10.20;99.90;;;;;;4997734;28;20042;-64
2023/04/07 09:56:08;;;;;;;12.35;10.00;;;10.20;99.90;;;;;;4992989;28;20041;-64
2023/04/07 09:58:36;;;;;;;15.25;10.15;;;10.20;99.90;;;;;;4971634;28;20052;-64
2023/04/07 10:01:02;;;;;;;13.45;9.77;;;10.20;99.90;;;;;;4999195;28;20396;-64
2023/04/07 10:03:28;;;;;;;13.50;9.80;;;10.30;99.90;;;;;;4965274;28;20045;-64
2023/04/07 10:05:53;;;;;;;12.65;9.80;;;10.20;99.90;;;;;;4986454;28;20077;-64
2023/04/07 10:08:20;;;;;;;14.02;11.15;;;10.30;99.90;;;;;;4985824;28;20034;-64
2023/04/07 10:10:46;;;;;;;14.27;11.00;;;10.30;99.90;;;;;;4979538;28;20117;-64
2023/04/07 10:13:12;;;;;;;14.13;10.88;;;10.30;99.90;;;;;;4982758;28;20050;-64
2023/04/07 10:15:38;;;;;;;13.23;10.32;;;10.30;99.90;;;;;;4967812;28;20042;-64
2023/04/07 10:18:07;;;;;;;13.23;10.60;;;10.40;99.90;;;;;;4966982;28;20041;-64
2023/04/07 10:20:33;;;;;;;13.80;10.98;;;10.50;99.90;;;;;;4960640;28;20043;-64
2023/04/07 10:23:18;;;;;;;14.35;10.27;;;10.60;99.90;;;;;;4989788;28;20038;-65
2023/04/07 10:25:45;;;;;;;12.60;10.07;;;10.70;99.90;;;;;;4976020;28;20039;-64
2023/04/07 10:28:13;;;;;;;12.93;10.25;;;10.80;99.90;;;;;;4967616;28;20053;-64
2023/04/07 10:30:39;;;;;;;13.35;10.57;;;10.80;99.90;;;;;;4983669;28;20100;-64
2023/04/07 10:33:05;;;;;;;13.70;10.23;;;10.90;99.90;;;;;;4995535;28;20435;-64
2023/04/07 10:36:05;;;;;;;12.80;10.43;;;10.80;99.90;;;;;;4983399;28;20096;-64
2023/04/07 10:38:31;;;;;;;13.18;10.45;;;10.80;99.90;;;;;;4992901;28;20038;-64
2023/04/07 10:40:57;;;;;;;13.80;11.07;;;10.80;99.90;;;;;;4986260;28;20085;-64
2023/04/07 10:43:40;;;;;;;13.95;11.18;;;10.80;99.90;;;;;;4995238;28;20041;-64
2023/04/07 10:46:06;;;;;;;13.25;11.18;;;10.80;99.90;;;;;;4969035;28;20444;-64
2023/04/07 10:48:32;;;;;;;13.75;11.60;;;10.80;99.90;;;;;;4985816;28;20382;-64
2023/04/07 10:51:03;;;;;;;13.85;10.80;;;10.70;99.90;;;;;;4986074;28;20035;-64
2023/04/07 10:53:33;;;;;;;13.70;10.65;;;10.70;99.90;;;;;;4979078;28;20044;-64
2023/04/07 10:55:59;;;;;;;12.57;10.27;;;10.70;99.90;;;;;;4965892;28;20042;-64
2023/04/07 10:58:27;;;;;;;13.43;10.45;;;10.80;99.90;;;;;;4984973;28;20030;-65
2023/04/07 11:00:59;;;;;;;12.93;9.35;;;10.80;99.90;;;;;;4979080;28;20046;-64
2023/04/07 11:03:27;;;;;;;13.90;9.98;;;10.90;99.90;;;;;;4985980;28;20038;-64
2023/04/07 11:06:01;;;;;;;12.70;9.90;;;11.00;99.90;;;;;;4988207;28;20091;-64
2023/04/07 11:08:38;;;;;;;13.85;9.57;;;11.10;99.90;;;;;;4976717;28;20189;-64
2023/04/07 11:11:07;;;;;;;14.23;10.32;;;11.20;99.90;;;;;;4973475;28;20089;-64
2023/04/07 11:13:46;;;;;;;14.30;10.18;;;11.20;99.90;;;;;;4985449;28;20073;-64
2023/04/07 11:16:13;;;;;;;11.50;9.25;;;11.30;99.90;;;;;;4989211;28;20427;-65
2023/04/07 11:18:40;;;;;;;11.65;9.50;;;11.40;99.90;;;;;;4970951;28;20035;-64
2023/04/07 11:21:06;;;;;;;12.00;9.48;;;11.50;99.90;;;;;;4982836;28;20078;-64
2023/04/07 11:23:40;;;;;;;10.93;8.77;;;11.50;99.90;;;;;;4990373;28;20128;-64
2023/04/07 11:26:10;;;;;;;10.23;8.48;;;11.50;99.90;;;;;;4981857;28;20043;-64
2023/04/07 11:28:46;;;;;;;10.68;8.85;;;11.50;99.90;;;;;;4993283;28;20038;-64
2023/04/07 11:31:19;;;;;;;11.60;8.27;;;11.40;99.90;;;;;;4960990;28;20455;-64
2023/04/07 11:33:52;;;;;;;11.25;8.93;;;11.40;99.90;;;;;;4968958;28;20081;-64
2023/04/07 11:36:27;;;;;;;11.50;8.10;;;11.30;99.90;;;;;;4967742;28;20507;-65
2023/04/07 11:38:53;;;;;;;10.18;7.68;;;11.30;99.90;;;;;;4989963;28;20042;-65
2023/04/07 11:41:20;;;;;;;9.13;6.82;;;11.20;99.90;;;;;;4955074;28;20038;-64
2023/04/07 11:43:46;;;;;;;10.80;7.40;;;11.20;99.90;;;;;;4976967;28;20185;-64
2023/04/07 11:46:14;;;;;;;11.07;7.30;;;11.10;99.90;;;;;;4987257;28;20514;-65
2023/04/07 11:48:41;;;;;;;9.38;7.22;;;11.10;99.90;;;;;;4981311;28;20113;-64
2023/04/07 11:51:16;;;;;;;10.02;7.38;;;11.10;99.90;;;;;;4991105;28;20034;-64
2023/04/07 11:53:41;;;;;;;11.98;7.45;;;11.10;99.90;;;;;;4980746;28;20409;-64
2023/04/07 11:56:09;;;;;;;9.32;7.63;;;11.10;99.90;;;;;;4987590;28;20042;-64
2023/04/07 11:58:38;;;;;;;9.35;7.28;;;11.20;99.90;;;;;;4965414;28;20691;-64
2023/04/07 12:01:07;;;;;;;9.02;7.28;;;11.20;99.90;;;;;;4986635;28;20049;-64
2023/04/07 12:03:34;;;;;;;8.68;6.95;;;11.20;99.90;;;;;;4983089;28;20034;-64
2023/04/07 12:06:01;;;;;;;8.38;6.90;;;11.20;99.90;;;;;;4988668;28;20034;-64
2023/04/07 12:08:43;;;;;;;7.88;6.47;;;11.20;99.90;;;;;;4999808;28;20516;-64
2023/04/07 12:11:09;;;;;;;8.90;6.80;;;11.30;99.90;;;;;;4963628;28;20125;-64
2023/04/07 12:13:36;;;;;;;9.50;6.55;;;11.40;99.90;;;;;;4964204;28;20121;-64
2023/04/07 12:16:02;;;;;;;8.65;6.45;;;11.40;99.90;;;;;;4983696;28;20049;-64
2023/04/07 12:18:28;;;;;;;8.68;6.28;;;11.50;99.90;;;;;;4993825;28;20038;-64
2023/04/07 12:20:54;;;;;;;8.70;6.10;;;11.50;99.90;;;;;;4984571;28;20053;-64
2023/04/07 12:23:21;;;;;;;7.55;6.50;;;11.50;99.90;;;;;;4984818;28;20039;-64
2023/04/07 12:25:47;;;;;;;8.30;6.38;;;11.50;99.90;;;;;;4981777;28;20404;-64
2023/04/07 12:28:12;;;;;;;8.52;6.45;;;11.50;99.90;;;;;;4987945;28;20027;-64
2023/04/07 12:30:38;;;;;;;8.30;6.75;;;11.50;99.90;;;;;;4985060;28;20031;-64
2023/04/07 12:33:03;;;;;;;8.68;7.00;;;11.50;99.90;;;;;;4995595;28;20451;-64
2023/04/07 12:35:29;;;;;;;9.13;7.20;;;11.50;99.90;;;;;;4978784;28;20636;-64
2023/04/07 12:37:56;;;;;;;8.77;6.63;;;11.50;99.90;;;;;;4982740;28;20142;-64